createdAt,value
2023-05-19T00:00:52.993Z,5.30
2023-05-19T00:05:57.636Z,5.50
2023-05-19T00:11:00.505Z,5.32
2023-05-19T00:16:03.308Z,4.45
2023-05-19T00:21:06.224Z,3.92
2023-05-19T00:26:08.745Z,3.40
2023-05-19T00:31:11.213Z,3.17
2023-05-19T00:36:14.411Z,2.40
2023-05-19T00:41:16.953Z,2.92
2023-05-19T00:46:20.149Z,3.10
2023-05-19T00:51:27.455Z,2.20
2023-05-19T00:56:30.141Z,2.33
2023-05-19T01:01:32.740Z,2.55
2023-05-19T01:06:35.413Z,2.53
2023-05-19T01:11:37.938Z,2.97
2023-05-19T01:16:47.715Z,3.13
2023-05-19T01:22:28.169Z,2.92
2023-05-19T01:27:34.056Z,3.80
2023-05-19T01:32:38.655Z,3.92
2023-05-19T01:37:42.306Z,4.00
2023-05-19T01:42:47.623Z,4.60
2023-05-19T01:47:56.664Z,4.78
2023-05-19T01:52:59.880Z,6.05
2023-05-19T01:58:36.950Z,4.53
2023-05-19T02:03:56.980Z,4.60
2023-05-19T02:09:17.863Z,4.10
2023-05-19T02:14:38.649Z,5.10
2023-05-19T02:19:41.836Z,4.93
2023-05-19T02:24:46.778Z,6.18
2023-05-19T02:29:49.564Z,6.85
2023-05-19T02:34:53.615Z,6.43
2023-05-19T02:44:58.477Z,5.43
2023-05-19T02:50:00.942Z,5.65
2023-05-19T02:55:03.724Z,6.22
2023-05-19T03:00:07.136Z,5.22
2023-05-19T03:05:10.595Z,6.78
2023-05-19T03:10:13.146Z,6.68
2023-05-19T03:15:16.917Z,6.65
2023-05-19T03:20:20.372Z,5.40
2023-05-19T03:25:23.395Z,5.60
2023-05-19T03:30:26.227Z,5.07
2023-05-19T03:35:41.284Z,8.07
2023-05-19T03:40:45.378Z,7.63
2023-05-19T03:45:48.698Z,8.27
2023-05-19T03:51:09.711Z,12.48
2023-05-19T03:56:14.052Z,9.18
2023-05-19T04:01:16.544Z,7.57
2023-05-19T04:06:19.434Z,4.32
2023-05-19T04:11:22.503Z,10.43
2023-05-19T04:16:25.264Z,9.63
2023-05-19T04:21:27.884Z,11.43
2023-05-19T04:26:31.398Z,8.50
2023-05-19T04:31:35.559Z,6.25
2023-05-19T04:36:41.943Z,6.55
2023-05-19T04:41:45.493Z,6.55
2023-05-19T04:46:50.346Z,9.65
2023-05-19T04:51:55.530Z,8.25
2023-05-19T04:57:01.621Z,9.00
2023-05-19T05:02:06.531Z,8.77
2023-05-19T05:07:11.134Z,9.27
2023-05-19T05:12:15.420Z,7.20
2023-05-19T05:17:18.404Z,8.10
2023-05-19T05:22:21.356Z,6.30
2023-05-19T05:27:24.233Z,6.63
2023-05-19T05:32:27.060Z,7.47
2023-05-19T05:37:31.229Z,9.82
2023-05-19T05:42:33.984Z,7.30
2023-05-19T05:52:46.752Z,4.88
2023-05-19T05:57:50.824Z,6.30
2023-05-19T06:02:53.603Z,9.40
2023-05-19T06:07:56.441Z,7.95
2023-05-19T06:13:01.983Z,5.22
2023-05-19T06:18:04.816Z,4.85
2023-05-19T06:23:07.375Z,5.03
2023-05-19T06:28:09.957Z,3.97
2023-05-19T06:33:13.663Z,3.42
2023-05-19T06:38:16.766Z,3.63
2023-05-19T06:43:19.593Z,3.47
2023-05-19T06:48:30.827Z,3.70
2023-05-19T06:53:35.146Z,3.72
2023-05-19T06:58:42.687Z,3.35
2023-05-19T07:03:47.410Z,3.60
2023-05-19T07:08:51.424Z,3.70
2023-05-19T07:13:54.798Z,3.20
2023-05-19T07:19:02.780Z,3.17
2023-05-19T07:24:05.582Z,3.10
2023-05-19T07:29:08.308Z,3.55
2023-05-19T07:34:10.903Z,3.17
2023-05-19T07:39:13.685Z,3.08
2023-05-19T07:44:16.747Z,3.47
2023-05-19T07:49:19.509Z,3.33
2023-05-19T07:54:22.084Z,3.28
2023-05-19T07:59:24.718Z,4.05
2023-05-19T08:04:28.124Z,3.55
2023-05-19T08:09:31.333Z,3.95
2023-05-19T08:14:35.195Z,3.35
2023-05-19T08:19:37.780Z,3.90
2023-05-19T08:24:42.873Z,3.75
2023-05-19T08:29:45.472Z,3.55
2023-05-19T08:34:48.107Z,3.95
2023-05-19T08:39:50.884Z,3.70
2023-05-19T08:44:53.477Z,3.42
2023-05-19T08:50:11.926Z,3.58
2023-05-19T08:55:42.229Z,3.80
2023-05-19T09:00:44.877Z,3.70
2023-05-19T09:05:48.700Z,4.10
2023-05-19T09:10:51.407Z,4.95
2023-05-19T09:15:56.501Z,3.70
2023-05-19T09:21:01.000Z,3.80
2023-05-19T09:26:07.750Z,3.13
2023-05-19T09:31:11.789Z,3.50
2023-05-19T09:36:14.515Z,3.60
2023-05-19T09:41:17.452Z,3.13
2023-05-19T09:46:28.734Z,3.25
2023-05-19T09:51:32.276Z,3.55
2023-05-19T09:56:35.425Z,2.95
2023-05-19T10:01:41.456Z,4.68
2023-05-19T10:06:44.994Z,3.35
2023-05-19T10:11:47.948Z,3.42
2023-05-19T10:17:00.753Z,3.60
2023-05-19T10:22:03.722Z,3.30
2023-05-19T10:27:12.248Z,4.75
2023-05-19T10:32:19.816Z,3.35
2023-05-19T10:37:34.188Z,3.20
2023-05-19T10:42:59.224Z,3.38
2023-05-19T10:48:02.032Z,3.33
2023-05-19T10:53:04.672Z,3.47
2023-05-19T11:03:17.973Z,3.13
2023-05-19T11:08:33.108Z,3.47
2023-05-19T11:13:36.746Z,3.20
2023-05-19T11:18:39.602Z,3.80
2023-05-19T11:23:42.198Z,2.60
2023-05-19T11:28:45.894Z,3.53
2023-05-19T11:33:49.064Z,3.40
2023-05-19T11:38:52.242Z,3.50
2023-05-19T11:43:54.768Z,3.50
2023-05-19T11:48:58.214Z,3.08
2023-05-19T11:54:02.008Z,2.72
2023-05-19T11:59:04.539Z,3.33
2023-05-19T12:04:10.741Z,3.40
2023-05-19T12:09:13.272Z,3.17
2023-05-19T12:14:15.937Z,3.15
2023-05-19T12:19:18.437Z,3.65
2023-05-19T12:24:22.109Z,3.08
2023-05-19T12:29:29.458Z,2.80
2023-05-19T12:34:32.436Z,2.95
2023-05-19T12:39:34.991Z,2.80
2023-05-19T12:44:58.926Z,2.78
2023-05-19T12:50:05.600Z,3.35
2023-05-19T12:55:11.181Z,3.72
2023-05-19T13:00:22.095Z,3.60
2023-05-19T13:05:25.341Z,3.40
2023-05-19T13:10:32.162Z,2.90
2023-05-19T13:15:38.067Z,3.17
2023-05-19T13:20:42.928Z,2.90
2023-05-19T13:25:45.910Z,3.20
2023-05-19T13:30:49.947Z,2.97
2023-05-19T13:35:52.632Z,3.17
2023-05-19T13:40:55.122Z,3.08
2023-05-19T13:45:57.900Z,3.53
2023-05-19T13:51:00.504Z,2.90
2023-05-19T13:56:03.147Z,2.75
2023-05-19T14:01:05.851Z,3.20
2023-05-19T14:06:09.335Z,2.95
2023-05-19T14:11:19.977Z,3.25
2023-05-19T14:16:23.340Z,2.90
2023-05-19T14:21:26.061Z,3.33
2023-05-19T14:26:29.385Z,3.05
2023-05-19T14:31:33.461Z,2.78
2023-05-19T14:36:36.129Z,3.88
2023-05-19T14:41:38.639Z,3.60
2023-05-19T14:46:41.167Z,3.22
2023-05-19T14:51:43.586Z,3.22
2023-05-19T14:56:46.061Z,3.50
2023-05-19T15:01:48.760Z,3.88
2023-05-19T15:07:05.964Z,3.55
2023-05-19T15:12:12.162Z,3.30
2023-05-19T15:17:14.648Z,3.30
2023-05-19T15:22:17.536Z,3.13
2023-05-19T15:27:21.106Z,3.13
2023-05-19T15:32:23.664Z,3.00
2023-05-19T15:37:26.144Z,3.70
2023-05-19T15:42:28.664Z,4.07
2023-05-19T15:47:32.567Z,3.33
2023-05-19T15:52:35.133Z,3.22
2023-05-19T15:57:37.639Z,3.10
2023-05-19T16:02:41.127Z,3.35
2023-05-19T16:12:46.089Z,4.22
2023-05-19T16:17:48.617Z,6.10
2023-05-19T16:22:51.160Z,4.28
2023-05-19T16:27:53.749Z,4.30
2023-05-19T16:32:56.407Z,4.40
2023-05-19T16:37:59.066Z,3.65
2023-05-19T16:43:01.704Z,3.00
2023-05-19T16:48:04.524Z,3.65
2023-05-19T16:53:07.185Z,3.25
2023-05-19T16:58:11.892Z,3.08
2023-05-19T17:03:14.559Z,3.42
2023-05-19T17:08:17.246Z,3.38
2023-05-19T17:13:19.773Z,3.70
2023-05-19T17:18:22.435Z,4.35
2023-05-19T17:23:25.003Z,6.28
2023-05-19T17:28:27.762Z,5.80
2023-05-19T17:33:30.651Z,4.97
2023-05-19T17:38:33.557Z,4.63
2023-05-19T17:43:40.496Z,4.28
2023-05-19T17:48:43.062Z,4.65
2023-05-19T17:53:45.938Z,4.15
2023-05-19T17:58:49.864Z,4.82
2023-05-19T18:03:52.759Z,5.40
2023-05-19T18:08:59.406Z,8.23
2023-05-19T18:14:03.416Z,7.05
2023-05-19T18:19:05.967Z,6.50
2023-05-19T18:24:08.642Z,5.18
2023-05-19T18:29:14.981Z,4.82
2023-05-19T18:34:17.525Z,3.60
2023-05-19T18:39:20.031Z,3.28
2023-05-19T18:44:22.672Z,3.53
2023-05-19T18:49:25.334Z,3.47
2023-05-19T18:54:27.820Z,3.50
2023-05-19T18:59:30.390Z,3.47
2023-05-19T19:04:33.279Z,3.03
2023-05-19T19:09:35.828Z,3.45
2023-05-19T19:14:38.976Z,3.70
2023-05-19T19:19:41.840Z,3.08
2023-05-19T19:24:44.503Z,2.97
2023-05-19T19:29:47.326Z,3.55
2023-05-19T19:34:49.922Z,3.20
2023-05-19T19:39:52.468Z,3.50
2023-05-19T19:44:56.114Z,3.38
2023-05-19T19:49:59.491Z,3.67
2023-05-19T19:55:02.797Z,3.63
2023-05-19T20:00:09.920Z,3.83
2023-05-19T20:05:13.283Z,3.80
2023-05-19T20:10:16.275Z,3.95
2023-05-19T20:15:18.954Z,4.03
2023-05-19T20:20:22.006Z,4.07
2023-05-19T20:25:24.612Z,5.00
2023-05-19T20:30:27.309Z,5.43
2023-05-19T20:35:29.991Z,5.95
2023-05-19T20:40:33.124Z,4.55
2023-05-19T20:45:36.756Z,5.47
2023-05-19T20:50:40.016Z,5.47
2023-05-19T20:55:45.888Z,4.85
2023-05-19T21:00:53.742Z,5.10
2023-05-19T21:05:56.735Z,4.47
2023-05-19T21:10:59.663Z,4.97
2023-05-19T21:16:03.625Z,4.07
2023-05-19T21:21:06.127Z,4.72
2023-05-19T21:26:08.670Z,4.07
2023-05-19T21:31:11.328Z,4.43
2023-05-19T21:36:14.118Z,4.05
2023-05-19T21:41:16.706Z,5.65
2023-05-19T21:46:19.625Z,5.28
2023-05-19T21:51:22.157Z,6.18
2023-05-19T21:56:24.873Z,7.68
2023-05-19T22:01:28.014Z,8.43
2023-05-19T22:06:31.821Z,9.48
2023-05-19T22:11:34.254Z,10.10
2023-05-19T22:16:36.941Z,13.18
2023-05-19T22:21:39.462Z,13.77
2023-05-19T22:26:44.824Z,14.63
2023-05-19T22:31:47.702Z,14.50
2023-05-19T22:36:50.115Z,14.43
2023-05-19T22:41:53.137Z,12.02
2023-05-19T22:46:55.721Z,13.85
2023-05-19T22:51:58.172Z,15.05
2023-05-19T22:57:00.724Z,13.85
2023-05-19T23:02:03.390Z,14.02
2023-05-19T23:07:06.093Z,12.50
2023-05-19T23:12:08.694Z,10.75
2023-05-19T23:17:11.227Z,8.77
2023-05-19T23:22:13.904Z,7.13
2023-05-19T23:27:16.408Z,7.18
2023-05-19T23:32:18.914Z,5.38
2023-05-19T23:37:21.432Z,5.20
2023-05-19T23:42:23.932Z,5.15
2023-05-19T23:47:26.990Z,5.15
2023-05-19T23:52:29.568Z,5.00
2023-05-19T23:57:32.088Z,5.47
